Hoyt Lakes, Minnesota
Current Conditions -  °F | °C
As of 12:31 AM on Saturday 20 Dec 2014 (Local Time) from KEVM Reporting Station
Unknown Precip Unknown Precip  
Wind Chill: 19°   Ceiling: 500
Heat Index: 27°   Visibility: 3mi
Dew Point: 25°   Wind: 7mph
Humidity: 93%   Direction: 160°SSE
Pressure: 30.1"   Gusts: NA
Location:  47.52°N, 92.14°W
Report Text: KEVM 200631Z AUTO 16006KT 3SM UP OVC005 M03/M04 A3010 RMK AO2
Loading
Personal Weather Stations






























Interactive Weather Map New forecast layout! Learn more

10-Day Weather Forecast

Advertisements
Track Severe Weather on mobile